Columbia, Connecticut
Current Conditions -  °F | °C
As of 11:47 PM on Wednesday 26 Nov 2014 (Local Time) from KIJD Reporting Station
Light Snow Light Snow  
Wind Chill: -3°   Ceiling: 1100
Heat Index:   Visibility: 3mi
Dew Point: -1°   Wind: 9mph
Humidity: 87%   Direction: 350°N
Pressure: 29.73"   Gusts: NA
Location:  41.7°N, 72.3°W
Report Text: KIJD 270447Z AUTO 35008KT 3SM -SN BR BKN011 OVC019 01/M01 A2973 RMK AO2 P0001
Loading
Personal Weather Stations






























Interactive Weather Map New forecast layout! Learn more

10-Day Weather Forecast

Advertisements
Track Severe Weather on mobile